sensor_id;sensor_type;location;lat;lon;timestamp;P1;durP1;ratioP1;P2;durP2;ratioP2
14776;SDS011;7480;43.124;25.686;2023-09-19T00:00:21;5.10;;;2.87;;
14776;SDS011;7480;43.124;25.686;2023-09-19T00:02:55;2.93;;;2.40;;
14776;SDS011;7480;43.124;25.686;2023-09-19T00:05:23;3.47;;;2.73;;
14776;SDS011;7480;43.124;25.686;2023-09-19T00:07:51;3.37;;;2.60;;
14776;SDS011;7480;43.124;25.686;2023-09-19T00:10:21;3.90;;;2.80;;
14776;SDS011;7480;43.124;25.686;2023-09-19T00:12:51;3.43;;;2.60;;
14776;SDS011;7480;43.124;25.686;2023-09-19T00:15:19;3.00;;;2.57;;
14776;SDS011;7480;43.124;25.686;2023-09-19T00:17:46;3.70;;;2.43;;
14776;SDS011;7480;43.124;25.686;2023-09-19T00:20:14;2.73;;;2.23;;
14776;SDS011;7480;43.124;25.686;2023-09-19T00:22:44;4.47;;;3.10;;
14776;SDS011;7480;43.124;25.686;2023-09-19T00:25:11;3.13;;;2.57;;
14776;SDS011;7480;43.124;25.686;2023-09-19T00:27:38;3.10;;;2.37;;
14776;SDS011;7480;43.124;25.686;2023-09-19T00:30:08;3.77;;;2.83;;
14776;SDS011;7480;43.124;25.686;2023-09-19T00:32:56;2.70;;;2.50;;
14776;SDS011;7480;43.124;25.686;2023-09-19T00:35:23;2.83;;;2.43;;
14776;SDS011;7480;43.124;25.686;2023-09-19T00:37:50;3.13;;;2.57;;
14776;SDS011;7480;43.124;25.686;2023-09-19T00:40:18;3.33;;;2.60;;
14776;SDS011;7480;43.124;25.686;2023-09-19T00:42:45;3.37;;;3.07;;
14776;SDS011;7480;43.124;25.686;2023-09-19T00:45:13;2.60;;;2.40;;
14776;SDS011;7480;43.124;25.686;2023-09-19T00:47:45;3.50;;;2.63;;
14776;SDS011;7480;43.124;25.686;2023-09-19T00:50:19;3.17;;;2.50;;
14776;SDS011;7480;43.124;25.686;2023-09-19T00:52:52;3.97;;;2.70;;
14776;SDS011;7480;43.124;25.686;2023-09-19T00:55:22;3.23;;;2.33;;
14776;SDS011;7480;43.124;25.686;2023-09-19T00:57:50;2.87;;;2.53;;
14776;SDS011;7480;43.124;25.686;2023-09-19T01:00:17;2.80;;;2.40;;
14776;SDS011;7480;43.124;25.686;2023-09-19T01:02:46;2.57;;;2.23;;
14776;SDS011;7480;43.124;25.686;2023-09-19T01:05:14;3.97;;;3.07;;
14776;SDS011;7480;43.124;25.686;2023-09-19T01:07:42;3.70;;;2.50;;
14776;SDS011;7480;43.124;25.686;2023-09-19T01:10:12;3.27;;;2.57;;
14776;SDS011;7480;43.124;25.686;2023-09-19T01:18:08;3.60;;;2.53;;
14776;SDS011;7480;43.124;25.686;2023-09-19T01:20:39;2.70;;;2.23;;
14776;SDS011;7480;43.124;25.686;2023-09-19T01:31:34;2.93;;;2.43;;
14776;SDS011;7480;43.124;25.686;2023-09-19T01:34:04;3.17;;;2.57;;
14776;SDS011;7480;43.124;25.686;2023-09-19T01:36:35;3.40;;;2.77;;
14776;SDS011;7480;43.124;25.686;2023-09-19T01:39:04;3.60;;;2.80;;
14776;SDS011;7480;43.124;25.686;2023-09-19T01:44:44;3.93;;;2.67;;
14776;SDS011;7480;43.124;25.686;2023-09-19T01:47:23;2.77;;;2.50;;
14776;SDS011;7480;43.124;25.686;2023-09-19T01:49:55;7.00;;;2.57;;
14776;SDS011;7480;43.124;25.686;2023-09-19T01:52:49;4.07;;;2.67;;
14776;SDS011;7480;43.124;25.686;2023-09-19T01:55:21;2.77;;;2.40;;
14776;SDS011;7480;43.124;25.686;2023-09-19T01:57:54;4.87;;;2.90;;
14776;SDS011;7480;43.124;25.686;2023-09-19T02:00:27;3.07;;;2.67;;
14776;SDS011;7480;43.124;25.686;2023-09-19T02:02:56;2.87;;;2.40;;
14776;SDS011;7480;43.124;25.686;2023-09-19T02:05:25;3.03;;;2.60;;
14776;SDS011;7480;43.124;25.686;2023-09-19T02:07:56;2.57;;;2.33;;
14776;SDS011;7480;43.124;25.686;2023-09-19T02:10:23;2.60;;;2.40;;
14776;SDS011;7480;43.124;25.686;2023-09-19T02:12:51;3.00;;;2.57;;
14776;SDS011;7480;43.124;25.686;2023-09-19T02:15:18;3.13;;;2.77;;
14776;SDS011;7480;43.124;25.686;2023-09-19T02:17:48;3.23;;;2.40;;
14776;SDS011;7480;43.124;25.686;2023-09-19T02:20:15;3.77;;;2.57;;
14776;SDS011;7480;43.124;25.686;2023-09-19T02:22:43;6.00;;;3.30;;
14776;SDS011;7480;43.124;25.686;2023-09-19T02:25:11;3.03;;;2.50;;
14776;SDS011;7480;43.124;25.686;2023-09-19T02:27:40;3.37;;;2.20;;
14776;SDS011;7480;43.124;25.686;2023-09-19T02:30:07;5.37;;;2.53;;
14776;SDS011;7480;43.124;25.686;2023-09-19T02:32:34;3.90;;;2.57;;
14776;SDS011;7480;43.124;25.686;2023-09-19T02:35:05;3.00;;;2.70;;
14776;SDS011;7480;43.124;25.686;2023-09-19T02:37:38;3.73;;;2.43;;
14776;SDS011;7480;43.124;25.686;2023-09-19T02:40:08;4.03;;;3.10;;
14776;SDS011;7480;43.124;25.686;2023-09-19T02:42:46;4.47;;;2.73;;
14776;SDS011;7480;43.124;25.686;2023-09-19T02:45:19;3.57;;;2.83;;
14776;SDS011;7480;43.124;25.686;2023-09-19T02:47:51;4.23;;;3.00;;
14776;SDS011;7480;43.124;25.686;2023-09-19T02:50:18;5.50;;;3.83;;
14776;SDS011;7480;43.124;25.686;2023-09-19T02:52:45;4.37;;;2.90;;
14776;SDS011;7480;43.124;25.686;2023-09-19T02:55:17;2.90;;;2.43;;
14776;SDS011;7480;43.124;25.686;2023-09-19T02:57:47;5.80;;;2.73;;
14776;SDS011;7480;43.124;25.686;2023-09-19T03:00:18;5.77;;;2.93;;
14776;SDS011;7480;43.124;25.686;2023-09-19T03:02:55;6.03;;;3.20;;
14776;SDS011;7480;43.124;25.686;2023-09-19T03:05:24;4.43;;;3.13;;
14776;SDS011;7480;43.124;25.686;2023-09-19T03:07:52;4.00;;;3.03;;
14776;SDS011;7480;43.124;25.686;2023-09-19T03:10:20;2.93;;;2.67;;
14776;SDS011;7480;43.124;25.686;2023-09-19T03:12:51;3.73;;;3.10;;
14776;SDS011;7480;43.124;25.686;2023-09-19T03:15:24;4.27;;;3.17;;
14776;SDS011;7480;43.124;25.686;2023-09-19T03:17:52;5.60;;;3.10;;
14776;SDS011;7480;43.124;25.686;2023-09-19T03:20:20;4.30;;;3.03;;
14776;SDS011;7480;43.124;25.686;2023-09-19T03:22:53;3.53;;;2.70;;
14776;SDS011;7480;43.124;25.686;2023-09-19T03:25:21;3.77;;;3.13;;
14776;SDS011;7480;43.124;25.686;2023-09-19T03:28:00;3.00;;;2.50;;
14776;SDS011;7480;43.124;25.686;2023-09-19T03:30:35;3.23;;;2.80;;
14776;SDS011;7480;43.124;25.686;2023-09-19T03:33:14;5.57;;;3.37;;
14776;SDS011;7480;43.124;25.686;2023-09-19T03:39:38;2.93;;;2.60;;
14776;SDS011;7480;43.124;25.686;2023-09-19T03:42:19;4.27;;;3.30;;
14776;SDS011;7480;43.124;25.686;2023-09-19T03:44:52;3.13;;;2.60;;
14776;SDS011;7480;43.124;25.686;2023-09-19T03:47:21;3.80;;;3.00;;
14776;SDS011;7480;43.124;25.686;2023-09-19T03:49:48;4.60;;;3.07;;
14776;SDS011;7480;43.124;25.686;2023-09-19T03:52:15;7.13;;;3.43;;
14776;SDS011;7480;43.124;25.686;2023-09-19T03:54:43;3.63;;;2.97;;
14776;SDS011;7480;43.124;25.686;2023-09-19T03:57:10;4.13;;;3.47;;
14776;SDS011;7480;43.124;25.686;2023-09-19T03:59:42;5.23;;;3.30;;
14776;SDS011;7480;43.124;25.686;2023-09-19T04:02:09;3.33;;;2.80;;
14776;SDS011;7480;43.124;25.686;2023-09-19T04:04:51;3.70;;;2.90;;
14776;SDS011;7480;43.124;25.686;2023-09-19T04:07:28;3.90;;;3.30;;
14776;SDS011;7480;43.124;25.686;2023-09-19T04:10:04;5.93;;;3.50;;
14776;SDS011;7480;43.124;25.686;2023-09-19T04:13:01;4.17;;;3.10;;
14776;SDS011;7480;43.124;25.686;2023-09-19T04:15:36;3.73;;;3.07;;
14776;SDS011;7480;43.124;25.686;2023-09-19T04:18:08;7.20;;;3.83;;
14776;SDS011;7480;43.124;25.686;2023-09-19T04:20:47;3.93;;;3.17;;
14776;SDS011;7480;43.124;25.686;2023-09-19T04:26:53;4.87;;;3.37;;
14776;SDS011;7480;43.124;25.686;2023-09-19T04:29:21;3.97;;;3.20;;
14776;SDS011;7480;43.124;25.686;2023-09-19T04:31:53;7.03;;;4.17;;
14776;SDS011;7480;43.124;25.686;2023-09-19T04:34:34;3.63;;;3.30;;
14776;SDS011;7480;43.124;25.686;2023-09-19T04:37:30;5.73;;;4.47;;
14776;SDS011;7480;43.124;25.686;2023-09-19T04:39:56;5.13;;;3.60;;
14776;SDS011;7480;43.124;25.686;2023-09-19T04:42:23;5.70;;;3.97;;
14776;SDS011;7480;43.124;25.686;2023-09-19T04:44:51;8.03;;;4.43;;
14776;SDS011;7480;43.124;25.686;2023-09-19T04:47:19;6.23;;;4.07;;
14776;SDS011;7480;43.124;25.686;2023-09-19T04:49:47;6.63;;;4.40;;
14776;SDS011;7480;43.124;25.686;2023-09-19T04:52:14;7.83;;;4.00;;
14776;SDS011;7480;43.124;25.686;2023-09-19T04:54:42;4.77;;;3.83;;
14776;SDS011;7480;43.124;25.686;2023-09-19T04:57:08;6.97;;;4.50;;
14776;SDS011;7480;43.124;25.686;2023-09-19T04:59:35;5.33;;;4.23;;
14776;SDS011;7480;43.124;25.686;2023-09-19T05:02:03;5.90;;;4.13;;
14776;SDS011;7480;43.124;25.686;2023-09-19T05:04:30;5.27;;;3.63;;
14776;SDS011;7480;43.124;25.686;2023-09-19T05:06:56;6.57;;;3.70;;
14776;SDS011;7480;43.124;25.686;2023-09-19T05:09:23;5.30;;;3.87;;
14776;SDS011;7480;43.124;25.686;2023-09-19T05:11:50;3.93;;;3.00;;
14776;SDS011;7480;43.124;25.686;2023-09-19T05:14:19;5.60;;;3.60;;
14776;SDS011;7480;43.124;25.686;2023-09-19T05:16:47;5.73;;;3.30;;
14776;SDS011;7480;43.124;25.686;2023-09-19T05:19:14;4.63;;;3.60;;
14776;SDS011;7480;43.124;25.686;2023-09-19T05:21:40;4.10;;;3.70;;
14776;SDS011;7480;43.124;25.686;2023-09-19T05:24:07;7.53;;;3.73;;
14776;SDS011;7480;43.124;25.686;2023-09-19T05:26:36;6.87;;;3.43;;
14776;SDS011;7480;43.124;25.686;2023-09-19T05:29:03;4.77;;;4.00;;
14776;SDS011;7480;43.124;25.686;2023-09-19T05:31:31;4.33;;;3.50;;
14776;SDS011;7480;43.124;25.686;2023-09-19T05:33:58;6.03;;;3.63;;
14776;SDS011;7480;43.124;25.686;2023-09-19T05:36:27;5.67;;;3.63;;
14776;SDS011;7480;43.124;25.686;2023-09-19T05:38:58;4.15;;;3.75;;
14776;SDS011;7480;43.124;25.686;2023-09-19T05:41:25;6.57;;;3.70;;
14776;SDS011;7480;43.124;25.686;2023-09-19T05:43:52;5.07;;;4.03;;
14776;SDS011;7480;43.124;25.686;2023-09-19T05:46:19;4.37;;;3.60;;
14776;SDS011;7480;43.124;25.686;2023-09-19T05:48:46;4.63;;;4.10;;
14776;SDS011;7480;43.124;25.686;2023-09-19T05:51:14;5.13;;;4.33;;
14776;SDS011;7480;43.124;25.686;2023-09-19T05:53:40;5.53;;;3.37;;
14776;SDS011;7480;43.124;25.686;2023-09-19T05:56:09;5.60;;;3.77;;
14776;SDS011;7480;43.124;25.686;2023-09-19T05:58:37;5.30;;;3.67;;
14776;SDS011;7480;43.124;25.686;2023-09-19T06:01:05;4.80;;;3.57;;
14776;SDS011;7480;43.124;25.686;2023-09-19T06:03:33;4.73;;;3.50;;
14776;SDS011;7480;43.124;25.686;2023-09-19T06:06:02;5.03;;;3.47;;
14776;SDS011;7480;43.124;25.686;2023-09-19T06:08:28;7.00;;;3.67;;
14776;SDS011;7480;43.124;25.686;2023-09-19T06:10:55;5.03;;;3.60;;
14776;SDS011;7480;43.124;25.686;2023-09-19T06:13:22;4.13;;;3.50;;
14776;SDS011;7480;43.124;25.686;2023-09-19T06:15:49;5.10;;;3.67;;
14776;SDS011;7480;43.124;25.686;2023-09-19T06:18:16;5.10;;;3.93;;
14776;SDS011;7480;43.124;25.686;2023-09-19T06:20:47;4.87;;;3.97;;
14776;SDS011;7480;43.124;25.686;2023-09-19T06:23:14;4.17;;;3.67;;
14776;SDS011;7480;43.124;25.686;2023-09-19T06:25:41;5.43;;;3.00;;
14776;SDS011;7480;43.124;25.686;2023-09-19T06:28:09;3.43;;;3.10;;
14776;SDS011;7480;43.124;25.686;2023-09-19T06:30:38;5.20;;;3.40;;
14776;SDS011;7480;43.124;25.686;2023-09-19T06:33:09;3.42;;;2.46;;
14776;SDS011;7480;43.124;25.686;2023-09-19T06:35:38;4.23;;;2.63;;
14776;SDS011;7480;43.124;25.686;2023-09-19T06:38:05;3.10;;;2.80;;
14776;SDS011;7480;43.124;25.686;2023-09-19T06:40:33;4.57;;;2.97;;
14776;SDS011;7480;43.124;25.686;2023-09-19T06:43:00;3.43;;;2.70;;
14776;SDS011;7480;43.124;25.686;2023-09-19T06:45:30;2.40;;;2.20;;
14776;SDS011;7480;43.124;25.686;2023-09-19T06:47:58;3.30;;;2.47;;
14776;SDS011;7480;43.124;25.686;2023-09-19T06:50:26;5.33;;;2.97;;
14776;SDS011;7480;43.124;25.686;2023-09-19T06:52:54;3.23;;;2.63;;
14776;SDS011;7480;43.124;25.686;2023-09-19T06:55:24;2.23;;;2.03;;
14776;SDS011;7480;43.124;25.686;2023-09-19T06:57:52;3.10;;;2.40;;
14776;SDS011;7480;43.124;25.686;2023-09-19T07:00:21;2.30;;;2.10;;
14776;SDS011;7480;43.124;25.686;2023-09-19T07:03:00;3.17;;;2.30;;
14776;SDS011;7480;43.124;25.686;2023-09-19T07:05:31;2.47;;;2.10;;
14776;SDS011;7480;43.124;25.686;2023-09-19T07:08:01;2.80;;;2.50;;
14776;SDS011;7480;43.124;25.686;2023-09-19T07:10:29;3.80;;;2.80;;
14776;SDS011;7480;43.124;25.686;2023-09-19T07:13:00;4.27;;;2.93;;
14776;SDS011;7480;43.124;25.686;2023-09-19T07:15:29;3.67;;;2.90;;
14776;SDS011;7480;43.124;25.686;2023-09-19T07:17:59;3.80;;;2.50;;
14776;SDS011;7480;43.124;25.686;2023-09-19T07:20:27;2.50;;;2.30;;
14776;SDS011;7480;43.124;25.686;2023-09-19T07:23:03;3.83;;;2.63;;
14776;SDS011;7480;43.124;25.686;2023-09-19T07:25:30;4.57;;;2.50;;
14776;SDS011;7480;43.124;25.686;2023-09-19T07:27:57;3.47;;;2.30;;
14776;SDS011;7480;43.124;25.686;2023-09-19T07:30:27;4.00;;;2.80;;
14776;SDS011;7480;43.124;25.686;2023-09-19T07:32:55;2.27;;;2.07;;
14776;SDS011;7480;43.124;25.686;2023-09-19T07:35:22;3.07;;;2.10;;
14776;SDS011;7480;43.124;25.686;2023-09-19T07:37:49;3.40;;;2.47;;
14776;SDS011;7480;43.124;25.686;2023-09-19T07:40:18;4.40;;;2.67;;
14776;SDS011;7480;43.124;25.686;2023-09-19T07:42:47;2.90;;;2.40;;
14776;SDS011;7480;43.124;25.686;2023-09-19T07:45:14;4.33;;;2.77;;
14776;SDS011;7480;43.124;25.686;2023-09-19T07:47:47;2.53;;;2.33;;
14776;SDS011;7480;43.124;25.686;2023-09-19T07:50:14;3.47;;;2.47;;
14776;SDS011;7480;43.124;25.686;2023-09-19T07:52:46;3.33;;;2.90;;
14776;SDS011;7480;43.124;25.686;2023-09-19T07:55:14;3.23;;;2.23;;
14776;SDS011;7480;43.124;25.686;2023-09-19T07:57:43;2.87;;;2.47;;
14776;SDS011;7480;43.124;25.686;2023-09-19T08:00:10;3.27;;;2.50;;
14776;SDS011;7480;43.124;25.686;2023-09-19T08:02:38;2.65;;;2.28;;
14776;SDS011;7480;43.124;25.686;2023-09-19T08:05:09;2.38;;;2.17;;
14776;SDS011;7480;43.124;25.686;2023-09-19T08:07:37;3.55;;;2.92;;
14776;SDS011;7480;43.124;25.686;2023-09-19T08:10:05;2.58;;;2.30;;
14776;SDS011;7480;43.124;25.686;2023-09-19T08:12:39;2.78;;;2.38;;
14776;SDS011;7480;43.124;25.686;2023-09-19T08:15:19;3.33;;;2.50;;
14776;SDS011;7480;43.124;25.686;2023-09-19T08:17:47;2.60;;;2.40;;
14776;SDS011;7480;43.124;25.686;2023-09-19T08:20:14;2.75;;;2.53;;
14776;SDS011;7480;43.124;25.686;2023-09-19T08:22:46;4.32;;;3.00;;
14776;SDS011;7480;43.124;25.686;2023-09-19T08:25:15;4.05;;;2.58;;
14776;SDS011;7480;43.124;25.686;2023-09-19T08:27:44;3.05;;;2.47;;
14776;SDS011;7480;43.124;25.686;2023-09-19T08:30:21;3.00;;;2.70;;
14776;SDS011;7480;43.124;25.686;2023-09-19T08:32:59;3.17;;;2.33;;
14776;SDS011;7480;43.124;25.686;2023-09-19T08:35:26;2.78;;;2.30;;
14776;SDS011;7480;43.124;25.686;2023-09-19T08:37:54;3.05;;;2.33;;
14776;SDS011;7480;43.124;25.686;2023-09-19T08:40:22;2.70;;;2.30;;
14776;SDS011;7480;43.124;25.686;2023-09-19T08:42:50;3.58;;;2.22;;
14776;SDS011;7480;43.124;25.686;2023-09-19T08:45:20;2.85;;;2.38;;
14776;SDS011;7480;43.124;25.686;2023-09-19T08:47:53;3.95;;;2.40;;
14776;SDS011;7480;43.124;25.686;2023-09-19T08:50:47;2.13;;;1.90;;
14776;SDS011;7480;43.124;25.686;2023-09-19T08:53:20;3.72;;;2.63;;
14776;SDS011;7480;43.124;25.686;2023-09-19T08:55:53;3.45;;;2.10;;
14776;SDS011;7480;43.124;25.686;2023-09-19T08:58:28;4.85;;;2.38;;
14776;SDS011;7480;43.124;25.686;2023-09-19T09:01:00;2.60;;;1.85;;
14776;SDS011;7480;43.124;25.686;2023-09-19T09:03:30;2.28;;;2.08;;
14776;SDS011;7480;43.124;25.686;2023-09-19T09:05:59;2.95;;;2.17;;
14776;SDS011;7480;43.124;25.686;2023-09-19T09:08:26;2.88;;;2.00;;
14776;SDS011;7480;43.124;25.686;2023-09-19T09:10:53;2.88;;;2.30;;
14776;SDS011;7480;43.124;25.686;2023-09-19T09:13:20;2.25;;;2.05;;
14776;SDS011;7480;43.124;25.686;2023-09-19T09:15:49;2.17;;;2.00;;
14776;SDS011;7480;43.124;25.686;2023-09-19T09:18:17;2.92;;;2.20;;
14776;SDS011;7480;43.124;25.686;2023-09-19T09:20:44;3.47;;;2.42;;
14776;SDS011;7480;43.124;25.686;2023-09-19T09:23:11;2.50;;;2.13;;
14776;SDS011;7480;43.124;25.686;2023-09-19T09:25:47;3.00;;;2.10;;
14776;SDS011;7480;43.124;25.686;2023-09-19T09:28:18;4.93;;;2.28;;
14776;SDS011;7480;43.124;25.686;2023-09-19T09:30:46;2.25;;;1.90;;
14776;SDS011;7480;43.124;25.686;2023-09-19T09:33:14;2.45;;;2.17;;
14776;SDS011;7480;43.124;25.686;2023-09-19T09:35:52;2.20;;;2.00;;
14776;SDS011;7480;43.124;25.686;2023-09-19T09:38:20;2.92;;;2.20;;
14776;SDS011;7480;43.124;25.686;2023-09-19T09:40:52;2.80;;;2.38;;
14776;SDS011;7480;43.124;25.686;2023-09-19T09:43:31;2.10;;;1.90;;
14776;SDS011;7480;43.124;25.686;2023-09-19T09:46:15;3.28;;;2.53;;
14776;SDS011;7480;43.124;25.686;2023-09-19T09:48:59;2.20;;;2.00;;
14776;SDS011;7480;43.124;25.686;2023-09-19T09:51:51;2.63;;;2.03;;
14776;SDS011;7480;43.124;25.686;2023-09-19T09:54:26;2.33;;;2.13;;
14776;SDS011;7480;43.124;25.686;2023-09-19T09:57:00;3.17;;;2.45;;
14776;SDS011;7480;43.124;25.686;2023-09-19T10:02:13;3.38;;;2.28;;
14776;SDS011;7480;43.124;25.686;2023-09-19T10:04:46;2.90;;;2.13;;
14776;SDS011;7480;43.124;25.686;2023-09-19T10:07:36;2.65;;;2.28;;
14776;SDS011;7480;43.124;25.686;2023-09-19T10:10:10;2.42;;;2.22;;
14776;SDS011;7480;43.124;25.686;2023-09-19T10:12:48;4.05;;;2.20;;
14776;SDS011;7480;43.124;25.686;2023-09-19T10:15:16;2.85;;;2.40;;
14776;SDS011;7480;43.124;25.686;2023-09-19T10:17:47;2.25;;;2.05;;
14776;SDS011;7480;43.124;25.686;2023-09-19T10:20:15;3.13;;;2.35;;
14776;SDS011;7480;43.124;25.686;2023-09-19T10:23:10;3.35;;;1.92;;
14776;SDS011;7480;43.124;25.686;2023-09-19T10:25:39;2.13;;;1.92;;
14776;SDS011;7480;43.124;25.686;2023-09-19T10:28:08;2.20;;;2.00;;
14776;SDS011;7480;43.124;25.686;2023-09-19T10:33:14;2.20;;;2.00;;
14776;SDS011;7480;43.124;25.686;2023-09-19T10:35:47;2.08;;;1.85;;
14776;SDS011;7480;43.124;25.686;2023-09-19T10:38:18;4.18;;;2.28;;
14776;SDS011;7480;43.124;25.686;2023-09-19T10:40:48;3.25;;;2.00;;
14776;SDS011;7480;43.124;25.686;2023-09-19T10:43:18;2.58;;;2.13;;
14776;SDS011;7480;43.124;25.686;2023-09-19T10:45:48;2.03;;;1.83;;
14776;SDS011;7480;43.124;25.686;2023-09-19T10:48:16;3.00;;;2.20;;
14776;SDS011;7480;43.124;25.686;2023-09-19T10:56:10;1.92;;;1.70;;
14776;SDS011;7480;43.124;25.686;2023-09-19T10:58:43;3.70;;;2.50;;
14776;SDS011;7480;43.124;25.686;2023-09-19T11:01:11;1.90;;;1.77;;
14776;SDS011;7480;43.124;25.686;2023-09-19T11:03:39;3.45;;;2.17;;
14776;SDS011;7480;43.124;25.686;2023-09-19T11:06:16;3.03;;;2.35;;
14776;SDS011;7480;43.124;25.686;2023-09-19T11:08:57;2.20;;;1.90;;
14776;SDS011;7480;43.124;25.686;2023-09-19T11:14:13;2.71;;;2.30;;
14776;SDS011;7480;43.124;25.686;2023-09-19T11:30:36;2.47;;;1.88;;
14776;SDS011;7480;43.124;25.686;2023-09-19T11:36:06;2.40;;;2.03;;
14776;SDS011;7480;43.124;25.686;2023-09-19T11:46:23;2.45;;;2.13;;
14776;SDS011;7480;43.124;25.686;2023-09-19T11:48:50;3.60;;;1.80;;
14776;SDS011;7480;43.124;25.686;2023-09-19T11:53:46;2.40;;;2.17;;
14776;SDS011;7480;43.124;25.686;2023-09-19T11:56:17;2.65;;;2.22;;
14776;SDS011;7480;43.124;25.686;2023-09-19T11:58:44;2.10;;;1.90;;
14776;SDS011;7480;43.124;25.686;2023-09-19T12:01:12;2.33;;;2.13;;
14776;SDS011;7480;43.124;25.686;2023-09-19T12:03:42;3.67;;;2.25;;
14776;SDS011;7480;43.124;25.686;2023-09-19T12:06:12;5.05;;;2.25;;
14776;SDS011;7480;43.124;25.686;2023-09-19T12:08:42;4.18;;;2.47;;
14776;SDS011;7480;43.124;25.686;2023-09-19T12:11:13;2.20;;;2.00;;
14776;SDS011;7480;43.124;25.686;2023-09-19T12:13:45;2.35;;;2.10;;
14776;SDS011;7480;43.124;25.686;2023-09-19T12:16:16;2.35;;;2.00;;
14776;SDS011;7480;43.124;25.686;2023-09-19T12:18:50;2.38;;;1.90;;
14776;SDS011;7480;43.124;25.686;2023-09-19T12:21:27;2.58;;;2.10;;
14776;SDS011;7480;43.124;25.686;2023-09-19T12:26:42;2.67;;;2.10;;
14776;SDS011;7480;43.124;25.686;2023-09-19T12:31:51;2.67;;;2.00;;
14776;SDS011;7480;43.124;25.686;2023-09-19T12:34:21;2.58;;;2.30;;
14776;SDS011;7480;43.124;25.686;2023-09-19T12:36:49;2.65;;;2.20;;
14776;SDS011;7480;43.124;25.686;2023-09-19T12:39:30;2.13;;;1.90;;
14776;SDS011;7480;43.124;25.686;2023-09-19T12:41:57;3.10;;;2.28;;
14776;SDS011;7480;43.124;25.686;2023-09-19T12:44:24;1.92;;;1.80;;
14776;SDS011;7480;43.124;25.686;2023-09-19T12:46:51;3.42;;;2.33;;
14776;SDS011;7480;43.124;25.686;2023-09-19T12:49:19;2.88;;;1.90;;
14776;SDS011;7480;43.124;25.686;2023-09-19T12:51:47;2.60;;;2.10;;
14776;SDS011;7480;43.124;25.686;2023-09-19T12:54:14;2.65;;;2.22;;
14776;SDS011;7480;43.124;25.686;2023-09-19T12:56:43;2.15;;;1.95;;
14776;SDS011;7480;43.124;25.686;2023-09-19T12:59:15;2.35;;;2.15;;
14776;SDS011;7480;43.124;25.686;2023-09-19T13:01:43;2.33;;;1.88;;
14776;SDS011;7480;43.124;25.686;2023-09-19T13:06:52;3.17;;;2.00;;
14776;SDS011;7480;43.124;25.686;2023-09-19T13:09:20;2.50;;;2.30;;
14776;SDS011;7480;43.124;25.686;2023-09-19T13:11:48;3.30;;;2.28;;
14776;SDS011;7480;43.124;25.686;2023-09-19T13:14:23;3.05;;;2.20;;
14776;SDS011;7480;43.124;25.686;2023-09-19T13:17:06;2.75;;;2.30;;
14776;SDS011;7480;43.124;25.686;2023-09-19T13:19:47;3.22;;;2.20;;
14776;SDS011;7480;43.124;25.686;2023-09-19T13:22:40;2.88;;;2.25;;
14776;SDS011;7480;43.124;25.686;2023-09-19T13:25:11;3.45;;;2.45;;
14776;SDS011;7480;43.124;25.686;2023-09-19T13:27:46;4.43;;;2.65;;
14776;SDS011;7480;43.124;25.686;2023-09-19T13:30:18;2.13;;;1.98;;
14776;SDS011;7480;43.124;25.686;2023-09-19T13:32:46;2.60;;;2.05;;
14776;SDS011;7480;43.124;25.686;2023-09-19T13:35:16;2.72;;;2.17;;
14776;SDS011;7480;43.124;25.686;2023-09-19T13:37:44;3.17;;;2.53;;
14776;SDS011;7480;43.124;25.686;2023-09-19T13:40:14;2.70;;;2.28;;
14776;SDS011;7480;43.124;25.686;2023-09-19T13:42:41;2.28;;;2.08;;
14776;SDS011;7480;43.124;25.686;2023-09-19T13:45:08;2.97;;;2.20;;
14776;SDS011;7480;43.124;25.686;2023-09-19T13:47:39;2.33;;;1.98;;
14776;SDS011;7480;43.124;25.686;2023-09-19T13:50:07;3.10;;;2.33;;
14776;SDS011;7480;43.124;25.686;2023-09-19T13:52:34;2.67;;;1.83;;
14776;SDS011;7480;43.124;25.686;2023-09-19T13:55:01;4.28;;;2.33;;
14776;SDS011;7480;43.124;25.686;2023-09-19T13:57:27;2.25;;;2.05;;
14776;SDS011;7480;43.124;25.686;2023-09-19T13:59:56;4.78;;;2.38;;
14776;SDS011;7480;43.124;25.686;2023-09-19T14:02:22;3.05;;;2.38;;
14776;SDS011;7480;43.124;25.686;2023-09-19T14:04:50;3.05;;;2.17;;
14776;SDS011;7480;43.124;25.686;2023-09-19T14:07:20;3.63;;;2.40;;
14776;SDS011;7480;43.124;25.686;2023-09-19T14:09:47;2.78;;;2.10;;
14776;SDS011;7480;43.124;25.686;2023-09-19T14:12:15;2.60;;;2.13;;
14776;SDS011;7480;43.124;25.686;2023-09-19T14:14:42;2.47;;;2.17;;
14776;SDS011;7480;43.124;25.686;2023-09-19T14:17:09;2.47;;;2.25;;
14776;SDS011;7480;43.124;25.686;2023-09-19T14:19:36;3.42;;;2.50;;
14776;SDS011;7480;43.124;25.686;2023-09-19T14:22:04;2.28;;;1.85;;
14776;SDS011;7480;43.124;25.686;2023-09-19T14:24:34;2.08;;;1.88;;
14776;SDS011;7480;43.124;25.686;2023-09-19T14:27:02;3.10;;;2.00;;
14776;SDS011;7480;43.124;25.686;2023-09-19T14:29:30;3.88;;;2.28;;
14776;SDS011;7480;43.124;25.686;2023-09-19T14:31:58;3.13;;;2.60;;
14776;SDS011;7480;43.124;25.686;2023-09-19T14:34:25;2.30;;;2.00;;
14776;SDS011;7480;43.124;25.686;2023-09-19T14:36:52;4.00;;;2.58;;
14776;SDS011;7480;43.124;25.686;2023-09-19T14:39:21;2.97;;;2.28;;
14776;SDS011;7480;43.124;25.686;2023-09-19T14:41:48;3.70;;;2.20;;
14776;SDS011;7480;43.124;25.686;2023-09-19T14:44:14;2.65;;;2.08;;
14776;SDS011;7480;43.124;25.686;2023-09-19T14:46:44;2.13;;;1.75;;
14776;SDS011;7480;43.124;25.686;2023-09-19T14:49:11;3.67;;;2.58;;
14776;SDS011;7480;43.124;25.686;2023-09-19T14:51:38;2.50;;;2.03;;
14776;SDS011;7480;43.124;25.686;2023-09-19T14:54:10;3.30;;;2.35;;
14776;SDS011;7480;43.124;25.686;2023-09-19T14:56:37;2.15;;;1.95;;
14776;SDS011;7480;43.124;25.686;2023-09-19T14:59:03;2.85;;;2.13;;
14776;SDS011;7480;43.124;25.686;2023-09-19T15:01:30;2.85;;;2.20;;
14776;SDS011;7480;43.124;25.686;2023-09-19T15:04:04;3.12;;;2.20;;
14776;SDS011;7480;43.124;25.686;2023-09-19T15:06:31;3.88;;;2.67;;
14776;SDS011;7480;43.124;25.686;2023-09-19T15:08:58;3.53;;;2.15;;
14776;SDS011;7480;43.124;25.686;2023-09-19T15:11:25;4.25;;;2.38;;
14776;SDS011;7480;43.124;25.686;2023-09-19T15:13:52;5.25;;;2.65;;
14776;SDS011;7480;43.124;25.686;2023-09-19T15:16:20;3.22;;;2.35;;
14776;SDS011;7480;43.124;25.686;2023-09-19T15:18:47;2.05;;;1.83;;
14776;SDS011;7480;43.124;25.686;2023-09-19T15:21:14;2.20;;;1.98;;
14776;SDS011;7480;43.124;25.686;2023-09-19T15:23:42;2.80;;;2.13;;
14776;SDS011;7480;43.124;25.686;2023-09-19T15:26:13;2.65;;;2.20;;
14776;SDS011;7480;43.124;25.686;2023-09-19T15:28:40;2.65;;;2.20;;
14776;SDS011;7480;43.124;25.686;2023-09-19T15:31:09;2.53;;;2.28;;
14776;SDS011;7480;43.124;25.686;2023-09-19T15:33:37;2.30;;;2.00;;
14776;SDS011;7480;43.124;25.686;2023-09-19T15:36:05;2.40;;;2.20;;
14776;SDS011;7480;43.124;25.686;2023-09-19T15:44:01;2.75;;;2.13;;
14776;SDS011;7480;43.124;25.686;2023-09-19T15:46:31;3.88;;;2.35;;
14776;SDS011;7480;43.124;25.686;2023-09-19T15:49:02;2.67;;;2.47;;
14776;SDS011;7480;43.124;25.686;2023-09-19T15:51:29;3.05;;;2.40;;
14776;SDS011;7480;43.124;25.686;2023-09-19T15:53:56;3.40;;;2.70;;
14776;SDS011;7480;43.124;25.686;2023-09-19T15:56:23;3.55;;;2.55;;
14776;SDS011;7480;43.124;25.686;2023-09-19T15:58:51;3.83;;;2.55;;
14776;SDS011;7480;43.124;25.686;2023-09-19T16:01:20;4.15;;;2.30;;
14776;SDS011;7480;43.124;25.686;2023-09-19T16:03:48;3.52;;;2.63;;
14776;SDS011;7480;43.124;25.686;2023-09-19T16:06:16;5.03;;;2.90;;
14776;SDS011;7480;43.124;25.686;2023-09-19T16:08:48;3.92;;;2.90;;
14776;SDS011;7480;43.124;25.686;2023-09-19T16:11:15;5.47;;;3.03;;
14776;SDS011;7480;43.124;25.686;2023-09-19T16:13:43;4.32;;;3.00;;
14776;SDS011;7480;43.124;25.686;2023-09-19T16:16:12;4.25;;;3.25;;
14776;SDS011;7480;43.124;25.686;2023-09-19T16:18:39;3.92;;;3.03;;
14776;SDS011;7480;43.124;25.686;2023-09-19T16:21:07;3.58;;;2.80;;
14776;SDS011;7480;43.124;25.686;2023-09-19T16:23:34;3.90;;;2.85;;